createdAt,value
2018-12-03T00:00:43.603Z,12.22
2018-12-03T00:01:43.656Z,12.21
2018-12-03T00:02:43.582Z,12.16
2018-12-03T00:03:43.573Z,12.19
2018-12-03T00:04:43.583Z,12.18
2018-12-03T00:05:43.599Z,12.18
2018-12-03T00:06:43.532Z,12.21
2018-12-03T00:07:43.578Z,12.19
2018-12-03T00:08:43.515Z,12.15
2018-12-03T00:09:43.529Z,12.08
2018-12-03T00:10:43.493Z,12.15
2018-12-03T00:11:43.486Z,12.19
2018-12-03T00:12:43.495Z,12.19
2018-12-03T00:13:43.465Z,12.22
2018-12-03T00:14:43.472Z,12.21
2018-12-03T00:15:43.436Z,12.18
2018-12-03T00:16:43.480Z,12.16
2018-12-03T00:17:43.419Z,12.16
2018-12-03T00:18:43.402Z,12.08
2018-12-03T00:19:43.414Z,12.15
2018-12-03T00:20:43.383Z,12.15
2018-12-03T00:21:43.373Z,12.11
2018-12-03T00:22:43.412Z,12.13
2018-12-03T00:23:43.359Z,12.07
2018-12-03T00:24:43.375Z,12.12
2018-12-03T00:25:43.333Z,12.15
2018-12-03T00:26:43.336Z,12.18
2018-12-03T00:27:43.308Z,12.15
2018-12-03T00:28:43.296Z,12.13
2018-12-03T00:29:43.390Z,12.05
2018-12-03T00:30:43.273Z,12.05
2018-12-03T00:31:43.267Z,12.08
2018-12-03T00:32:43.288Z,12.00
2018-12-03T00:33:43.244Z,11.98
2018-12-03T00:34:43.253Z,11.98
2018-12-03T00:35:43.265Z,12.07
2018-12-03T00:36:43.216Z,11.98
2018-12-03T00:37:43.202Z,12.03
2018-12-03T00:38:43.198Z,11.96
2018-12-03T00:39:43.202Z,12.03
2018-12-03T00:40:43.164Z,11.97
2018-12-03T00:41:43.154Z,12.01
2018-12-03T00:42:43.185Z,12.05
2018-12-03T00:43:43.165Z,12.01
2018-12-03T00:44:43.150Z,12.07
2018-12-03T00:45:43.111Z,12.16
2018-12-03T00:46:43.102Z,12.04
2018-12-03T00:47:43.090Z,12.04
2018-12-03T00:48:43.083Z,12.16
2018-12-03T00:49:43.137Z,12.16
2018-12-03T00:50:43.061Z,12.11
2018-12-03T00:51:43.047Z,12.12
2018-12-03T00:52:43.034Z,12.08
2018-12-03T00:53:43.027Z,12.15
2018-12-03T00:54:43.035Z,12.08
2018-12-03T00:55:43.045Z,12.16
2018-12-03T00:56:42.995Z,12.04
2018-12-03T00:57:42.983Z,12.13
2018-12-03T00:58:42.980Z,12.12
2018-12-03T00:59:42.985Z,12.05
2018-12-03T01:00:42.949Z,12.11
2018-12-03T01:01:42.982Z,12.12
2018-12-03T01:02:42.931Z,12.15
2018-12-03T01:03:42.916Z,12.15
2018-12-03T01:04:42.932Z,12.08
2018-12-03T01:05:42.893Z,12.16
2018-12-03T01:06:42.889Z,12.08
2018-12-03T01:07:42.916Z,12.07
2018-12-03T01:08:42.862Z,12.08
2018-12-03T01:09:42.876Z,12.05
2018-12-03T01:10:42.839Z,12.05
2018-12-03T01:11:42.829Z,12.08
2018-12-03T01:12:42.822Z,12.03
2018-12-03T01:13:42.855Z,12.03
2018-12-03T01:14:42.818Z,12.01
2018-12-03T01:15:42.788Z,12.04
2018-12-03T01:16:42.783Z,12.04
2018-12-03T01:17:42.762Z,11.93
2018-12-03T01:18:42.753Z,11.90
2018-12-03T01:19:42.793Z,11.87
2018-12-03T01:20:42.730Z,11.97
2018-12-03T01:21:42.722Z,11.88
2018-12-03T01:22:42.711Z,11.84
2018-12-03T01:23:42.708Z,11.81
2018-12-03T01:24:42.711Z,11.77
2018-12-03T01:25:42.705Z,11.85
2018-12-03T01:26:42.665Z,11.90
2018-12-03T01:27:42.652Z,11.94
2018-12-03T01:28:42.642Z,11.93
2018-12-03T01:29:42.656Z,11.93
2018-12-03T01:30:42.622Z,11.90
2018-12-03T01:31:42.642Z,11.85
2018-12-03T01:32:42.599Z,11.93
2018-12-03T01:33:42.592Z,11.97
2018-12-03T01:34:42.602Z,11.98
2018-12-03T01:35:42.566Z,12.01
2018-12-03T01:36:42.563Z,12.03
2018-12-03T01:37:42.548Z,11.97
2018-12-03T01:38:42.540Z,12.01
2018-12-03T01:39:42.563Z,12.01
2018-12-03T01:40:42.516Z,12.04
2018-12-03T01:41:42.501Z,12.01
2018-12-03T01:42:42.488Z,12.01
2018-12-03T01:43:42.477Z,11.90
2018-12-03T01:44:42.492Z,12.03
2018-12-03T01:45:42.471Z,11.97
2018-12-03T01:46:42.451Z,12.01
2018-12-03T01:47:42.444Z,12.01
2018-12-03T01:48:42.422Z,12.00
2018-12-03T01:49:42.438Z,12.05
2018-12-03T01:50:42.407Z,11.98
2018-12-03T01:51:42.422Z,12.05
2018-12-03T01:52:42.384Z,11.94
2018-12-03T01:53:42.369Z,11.97
2018-12-03T01:54:42.383Z,11.97
2018-12-03T01:55:42.352Z,11.93
2018-12-03T01:56:42.339Z,12.01
2018-12-03T01:57:42.341Z,11.94
2018-12-03T01:58:42.320Z,11.93
2018-12-03T01:59:42.327Z,11.90
2018-12-03T02:00:42.294Z,11.85
2018-12-03T02:01:42.283Z,11.93
2018-12-03T02:02:42.274Z,11.85
2018-12-03T02:03:42.282Z,11.77
2018-12-03T02:04:42.273Z,11.88
2018-12-03T02:05:42.240Z,11.77
2018-12-03T02:06:42.229Z,11.77
2018-12-03T02:07:42.216Z,11.90
2018-12-03T02:08:42.211Z,11.75
2018-12-03T02:09:42.265Z,11.81
2018-12-03T02:10:42.190Z,11.82
2018-12-03T02:11:42.173Z,11.82
2018-12-03T02:12:42.164Z,11.82
2018-12-03T02:13:42.153Z,11.82
2018-12-03T02:14:42.163Z,11.87
2018-12-03T02:15:42.177Z,11.78
2018-12-03T02:16:42.121Z,11.75
2018-12-03T02:17:42.111Z,11.79
2018-12-03T02:18:42.107Z,11.82
2018-12-03T02:19:42.121Z,11.79
2018-12-03T02:20:42.077Z,11.85
2018-12-03T02:21:42.095Z,11.75
2018-12-03T02:22:42.064Z,11.82
2018-12-03T02:23:42.049Z,11.82
2018-12-03T02:24:42.071Z,11.82
2018-12-03T02:25:42.027Z,11.87
2018-12-03T02:26:42.017Z,11.85
2018-12-03T02:27:42.053Z,11.78
2018-12-03T02:28:41.992Z,11.78
2018-12-03T02:29:42.019Z,11.82
2018-12-03T02:30:41.971Z,11.88
2018-12-03T02:31:41.980Z,11.87
2018-12-03T02:32:41.950Z,11.90
2018-12-03T02:33:41.935Z,11.85
2018-12-03T02:34:41.951Z,11.96
2018-12-03T02:35:41.991Z,11.84
2018-12-03T02:36:41.901Z,11.96
2018-12-03T02:37:41.906Z,11.82
2018-12-03T02:38:41.880Z,11.84
2018-12-03T02:39:41.897Z,11.85
2018-12-03T02:40:41.858Z,11.82
2018-12-03T02:41:41.889Z,11.81
2018-12-03T02:42:41.835Z,11.78
2018-12-03T02:43:41.825Z,11.85
2018-12-03T02:44:41.844Z,11.79
2018-12-03T02:45:41.813Z,11.85
2018-12-03T02:46:41.793Z,11.74
2018-12-03T02:47:41.826Z,11.69
2018-12-03T02:48:41.779Z,11.72
2018-12-03T02:49:41.773Z,11.81
2018-12-03T02:50:41.773Z,11.85
2018-12-03T02:51:41.740Z,11.77
2018-12-03T02:52:41.727Z,11.88
2018-12-03T02:53:41.783Z,11.84
2018-12-03T02:54:41.705Z,11.78
2018-12-03T02:55:41.730Z,11.85
2018-12-03T02:56:41.689Z,11.79
2018-12-03T02:57:41.679Z,11.78
2018-12-03T02:58:41.730Z,11.78
2018-12-03T02:59:41.655Z,11.88
2018-12-03T03:00:41.670Z,11.75
2018-12-03T03:01:41.740Z,11.82
2018-12-03T03:02:41.622Z,11.81
2018-12-03T03:03:41.621Z,11.77
2018-12-03T03:04:41.599Z,11.84
2018-12-03T03:05:41.621Z,11.79
2018-12-03T03:06:41.602Z,11.93
2018-12-03T03:07:41.566Z,11.87
2018-12-03T03:08:41.618Z,11.90
2018-12-03T03:09:41.549Z,11.96
2018-12-03T03:10:41.564Z,11.90
2018-12-03T03:11:41.526Z,11.98
2018-12-03T03:12:41.509Z,12.01
2018-12-03T03:13:41.507Z,11.94
2018-12-03T03:14:41.499Z,11.98
2018-12-03T03:15:41.567Z,11.94
2018-12-03T03:16:41.521Z,11.97
2018-12-03T03:17:41.457Z,11.96
2018-12-03T03:18:41.447Z,11.93
2018-12-03T03:19:41.438Z,11.90
2018-12-03T03:20:42.221Z,11.87
2018-12-03T03:21:41.442Z,11.85
2018-12-03T03:22:41.550Z,11.85
2018-12-03T03:23:41.419Z,11.85
2018-12-03T03:24:41.381Z,11.88
2018-12-03T03:25:41.385Z,11.90
2018-12-03T03:26:41.398Z,11.88
2018-12-03T03:27:41.429Z,11.88
2018-12-03T03:28:41.345Z,11.88
2018-12-03T03:29:41.328Z,11.87
2018-12-03T03:30:41.340Z,11.85
2018-12-03T03:31:41.358Z,11.90
2018-12-03T03:32:41.307Z,11.93
2018-12-03T03:33:41.356Z,11.87
2018-12-03T03:34:41.282Z,11.87
2018-12-03T03:35:41.270Z,11.94
2018-12-03T03:36:41.248Z,11.87
2018-12-03T03:37:41.276Z,11.81
2018-12-03T03:38:41.354Z,11.85
2018-12-03T03:39:41.247Z,11.81
2018-12-03T03:40:41.308Z,11.82
2018-12-03T03:41:41.195Z,11.94
2018-12-03T03:42:41.235Z,12.03
2018-12-03T03:43:41.197Z,12.01
2018-12-03T03:44:41.177Z,12.03
2018-12-03T03:45:41.152Z,12.04
2018-12-03T03:46:41.162Z,12.01
2018-12-03T03:47:41.199Z,12.03
2018-12-03T03:48:41.130Z,12.01
2018-12-03T03:49:41.118Z,11.96
2018-12-03T03:50:41.103Z,11.98
2018-12-03T03:51:41.109Z,12.05
2018-12-03T03:52:41.125Z,12.01
2018-12-03T03:53:41.066Z,12.04
2018-12-03T03:54:41.055Z,11.96
2018-12-03T03:55:41.044Z,12.03
2018-12-03T03:56:41.038Z,12.04
2018-12-03T03:57:41.057Z,12.00
2018-12-03T03:58:41.037Z,12.04
2018-12-03T03:59:41.004Z,11.98
2018-12-03T04:00:40.992Z,12.01
2018-12-03T04:01:40.981Z,12.05
2018-12-03T04:02:40.976Z,12.07
2018-12-03T04:03:40.994Z,12.05
2018-12-03T04:04:40.999Z,12.01
2018-12-03T04:05:40.960Z,12.01
2018-12-03T04:06:40.931Z,12.08
2018-12-03T04:07:40.984Z,12.01
2018-12-03T04:08:40.960Z,12.04
2018-12-03T04:09:40.897Z,12.07
2018-12-03T04:10:40.882Z,11.97
2018-12-03T04:11:41.012Z,12.03
2018-12-03T04:12:40.924Z,11.98
2018-12-03T04:13:40.850Z,12.00
2018-12-03T04:14:40.873Z,12.01
2018-12-03T04:15:40.853Z,11.98
2018-12-03T04:16:40.828Z,11.94
2018-12-03T04:17:40.917Z,12.04
2018-12-03T04:18:40.811Z,12.00
2018-12-03T04:19:40.813Z,12.01
2018-12-03T04:20:40.777Z,11.96
2018-12-03T04:21:40.766Z,12.05
2018-12-03T04:22:40.849Z,11.97
2018-12-03T04:23:40.760Z,12.03
2018-12-03T04:24:40.753Z,11.97
2018-12-03T04:25:40.745Z,12.01
2018-12-03T04:26:40.749Z,11.96
2018-12-03T04:27:40.695Z,11.96
2018-12-03T04:28:40.684Z,11.88
2018-12-03T04:29:40.703Z,12.01
2018-12-03T04:30:40.778Z,12.04
2018-12-03T04:31:40.657Z,12.04
2018-12-03T04:32:40.684Z,12.00
2018-12-03T04:33:40.633Z,12.03
2018-12-03T04:34:40.620Z,12.05
2018-12-03T04:35:40.666Z,12.00
2018-12-03T04:36:40.717Z,11.97
2018-12-03T04:37:40.602Z,11.93
2018-12-03T04:38:40.670Z,12.01
2018-12-03T04:39:40.575Z,11.98
2018-12-03T04:40:40.615Z,11.87
2018-12-03T04:41:40.548Z,11.93
2018-12-03T04:42:40.531Z,11.93
2018-12-03T04:43:40.542Z,11.93
2018-12-03T04:44:40.537Z,11.85
2018-12-03T04:45:40.533Z,11.90
2018-12-03T04:46:40.487Z,11.77
2018-12-03T04:47:40.477Z,11.82
2018-12-03T04:48:40.472Z,11.77
2018-12-03T04:49:40.544Z,11.88
2018-12-03T04:50:40.442Z,11.79
2018-12-03T04:51:40.488Z,11.79
2018-12-03T04:52:40.428Z,11.90
2018-12-03T04:53:40.411Z,11.87
2018-12-03T04:54:40.588Z,11.79
2018-12-03T04:55:40.389Z,11.88
2018-12-03T04:56:40.421Z,11.93
2018-12-03T04:57:40.379Z,11.88
2018-12-03T04:58:40.369Z,11.85
2018-12-03T04:59:40.394Z,11.87
2018-12-03T05:00:40.350Z,11.90
2018-12-03T05:01:40.368Z,11.94
2018-12-03T05:02:40.318Z,11.84
2018-12-03T05:03:40.359Z,11.88
2018-12-03T05:04:40.297Z,11.96
2018-12-03T05:05:40.287Z,12.04
2018-12-03T05:06:40.425Z,11.98
2018-12-03T05:07:40.288Z,11.97
2018-12-03T05:08:40.250Z,12.01
2018-12-03T05:09:40.242Z,12.07
2018-12-03T05:10:40.224Z,11.96
2018-12-03T05:11:40.213Z,12.03
2018-12-03T05:12:40.236Z,12.00
2018-12-03T05:13:40.260Z,12.00
2018-12-03T05:14:40.190Z,11.90
2018-12-03T05:15:40.177Z,11.93
2018-12-03T05:16:40.173Z,11.88
2018-12-03T05:17:40.182Z,11.88
2018-12-03T05:18:40.146Z,11.79
2018-12-03T05:19:40.141Z,11.82
2018-12-03T05:20:40.173Z,11.82
2018-12-03T05:21:40.113Z,11.69
2018-12-03T05:22:40.132Z,11.67
2018-12-03T05:23:40.091Z,11.69
2018-12-03T05:24:40.070Z,11.66
2018-12-03T05:25:40.062Z,11.66
2018-12-03T05:26:40.050Z,11.63
2018-12-03T05:27:40.165Z,11.66
2018-12-03T05:28:40.027Z,11.60
2018-12-03T05:29:40.015Z,11.46
2018-12-03T05:30:40.009Z,11.46
2018-12-03T05:31:39.997Z,11.51
2018-12-03T05:32:39.994Z,11.53
2018-12-03T05:33:40.040Z,11.45
2018-12-03T05:34:39.962Z,11.45
2018-12-03T05:35:39.953Z,11.42
2018-12-03T05:36:39.944Z,11.48
2018-12-03T05:37:39.926Z,11.49
2018-12-03T05:38:39.941Z,11.45
2018-12-03T05:39:39.951Z,11.48
2018-12-03T05:40:39.895Z,11.39
2018-12-03T05:41:39.895Z,11.36
2018-12-03T05:42:39.890Z,11.39
2018-12-03T05:43:39.898Z,11.42
2018-12-03T05:44:39.876Z,11.35
2018-12-03T05:45:39.845Z,11.36
2018-12-03T05:46:39.831Z,11.31
2018-12-03T05:47:39.848Z,11.27
2018-12-03T05:48:39.834Z,11.30
2018-12-03T05:49:39.795Z,11.21
2018-12-03T05:50:39.788Z,11.09
2018-12-03T05:51:39.774Z,11.20
2018-12-03T05:52:39.789Z,11.19
2018-12-03T05:53:39.782Z,11.19
2018-12-03T05:54:39.741Z,11.16
2018-12-03T05:55:39.733Z,11.06
2018-12-03T05:56:39.720Z,11.11
2018-12-03T05:57:39.716Z,11.19
2018-12-03T05:58:39.742Z,11.20
2018-12-03T05:59:39.711Z,11.20
2018-12-03T06:00:39.685Z,11.27
2018-12-03T06:01:39.665Z,11.27
2018-12-03T06:02:39.656Z,11.30
2018-12-03T06:03:39.644Z,11.21
2018-12-03T06:04:39.792Z,11.33
2018-12-03T06:05:39.633Z,11.30
2018-12-03T06:06:39.616Z,11.28
2018-12-03T06:07:39.645Z,11.44
2018-12-03T06:08:39.604Z,11.44
2018-12-03T06:09:39.646Z,11.45
2018-12-03T06:10:39.565Z,11.41
2018-12-03T06:11:39.553Z,11.48
2018-12-03T06:12:39.567Z,11.48
2018-12-03T06:13:39.532Z,11.54
2018-12-03T06:14:39.536Z,11.48
2018-12-03T06:15:39.533Z,11.53
2018-12-03T06:16:39.571Z,11.45
2018-12-03T06:17:39.491Z,11.53
2018-12-03T06:18:39.477Z,11.46
2018-12-03T06:19:39.467Z,11.51
2018-12-03T06:20:39.494Z,11.53
2018-12-03T06:21:39.483Z,11.53
2018-12-03T06:22:39.436Z,11.56
2018-12-03T06:23:39.428Z,11.56
2018-12-03T06:24:39.411Z,11.59
2018-12-03T06:25:39.424Z,11.60
2018-12-03T06:26:39.390Z,11.59
2018-12-03T06:27:39.377Z,11.64
2018-12-03T06:28:39.406Z,11.60
2018-12-03T06:29:39.357Z,11.66
2018-12-03T06:30:39.385Z,11.66
2018-12-03T06:31:39.357Z,11.69
2018-12-03T06:32:39.369Z,11.64
2018-12-03T06:33:39.335Z,11.64
2018-12-03T06:34:39.321Z,11.67
2018-12-03T06:35:39.342Z,11.62
2018-12-03T06:36:39.315Z,11.60
2018-12-03T06:37:39.270Z,11.59
2018-12-03T06:38:39.261Z,11.64
2018-12-03T06:39:39.252Z,11.62
2018-12-03T06:40:39.378Z,11.64
2018-12-03T06:41:39.309Z,11.69
2018-12-03T06:42:39.214Z,11.64
2018-12-03T06:43:39.244Z,11.69
2018-12-03T06:44:39.227Z,11.69
2018-12-03T06:45:39.185Z,11.70
2018-12-03T06:46:39.196Z,11.69
2018-12-03T06:47:39.175Z,11.69
2018-12-03T06:48:39.239Z,11.81
2018-12-03T06:49:40.343Z,11.82
2018-12-03T06:50:39.137Z,11.81
2018-12-03T06:51:39.198Z,11.77
2018-12-03T06:52:39.112Z,11.82
2018-12-03T06:53:39.105Z,11.78
2018-12-03T06:54:39.101Z,11.67
2018-12-03T06:55:39.084Z,11.67
2018-12-03T06:56:39.289Z,11.69
2018-12-03T06:57:39.070Z,11.67
2018-12-03T06:58:39.060Z,11.72
2018-12-03T06:59:39.040Z,11.69
2018-12-03T07:00:39.050Z,11.70
2018-12-03T07:01:39.014Z,11.69
2018-12-03T07:02:39.024Z,11.64
2018-12-03T07:03:39.066Z,11.64
2018-12-03T07:04:38.977Z,11.67
2018-12-03T07:05:38.988Z,11.66
2018-12-03T07:06:38.978Z,11.67
2018-12-03T07:07:38.975Z,11.70
2018-12-03T07:08:38.934Z,11.59
2018-12-03T07:09:38.938Z,11.67
2018-12-03T07:10:38.912Z,11.62
2018-12-03T07:11:38.906Z,11.63
2018-12-03T07:12:38.921Z,11.64
2018-12-03T07:13:38.890Z,11.62
2018-12-03T07:14:38.872Z,11.60
2018-12-03T07:15:38.923Z,11.64
2018-12-03T07:16:38.848Z,11.62
2018-12-03T07:17:38.845Z,11.62
2018-12-03T07:18:38.847Z,11.57
2018-12-03T07:19:38.812Z,11.57
2018-12-03T07:20:38.809Z,11.54
2018-12-03T07:21:38.801Z,11.51
2018-12-03T07:22:38.815Z,11.49
2018-12-03T07:23:38.791Z,11.49
2018-12-03T07:24:38.768Z,11.39
2018-12-03T07:25:38.746Z,11.49
2018-12-03T07:26:38.736Z,11.31
2018-12-03T07:27:38.751Z,11.36
2018-12-03T07:28:38.774Z,11.30
2018-12-03T07:29:38.703Z,11.26
2018-12-03T07:30:38.692Z,11.20
2018-12-03T07:31:38.684Z,11.24
2018-12-03T07:32:38.672Z,11.16
2018-12-03T07:33:38.692Z,11.19
2018-12-03T07:34:38.698Z,11.13
2018-12-03T07:35:38.637Z,11.19
2018-12-03T07:36:38.655Z,11.16
2018-12-03T07:37:38.615Z,11.19
2018-12-03T07:38:38.614Z,11.16
2018-12-03T07:39:38.628Z,11.12
2018-12-03T07:40:38.643Z,11.16
2018-12-03T07:41:38.572Z,11.19
2018-12-03T07:42:38.565Z,11.16
2018-12-03T07:43:38.553Z,11.09
2018-12-03T07:44:38.571Z,11.05
2018-12-03T07:45:38.535Z,11.08
2018-12-03T07:46:38.553Z,11.08
2018-12-03T07:47:38.506Z,11.12
2018-12-03T07:48:38.494Z,11.21
2018-12-03T07:49:38.483Z,11.13
2018-12-03T07:50:38.502Z,11.24
2018-12-03T07:51:38.462Z,11.19
2018-12-03T07:52:38.478Z,11.09
2018-12-03T07:53:38.441Z,11.16
2018-12-03T07:54:38.431Z,11.20
2018-12-03T07:55:38.450Z,11.08
2018-12-03T07:56:38.407Z,11.06
2018-12-03T07:57:38.395Z,11.02
2018-12-03T07:58:38.407Z,10.99
2018-12-03T07:59:38.407Z,10.93
2018-12-03T08:00:38.395Z,10.87
2018-12-03T08:01:38.354Z,10.81
2018-12-03T08:02:38.340Z,10.83
2018-12-03T08:03:38.334Z,10.84
2018-12-03T08:04:38.321Z,10.86
2018-12-03T08:05:38.446Z,10.84
2018-12-03T08:06:38.296Z,10.75
2018-12-03T08:07:38.286Z,10.73
2018-12-03T08:08:38.279Z,10.84
2018-12-03T08:09:38.270Z,10.75
2018-12-03T08:10:38.285Z,10.73
2018-12-03T08:11:38.297Z,10.78
2018-12-03T08:12:38.239Z,10.75
2018-12-03T08:13:38.224Z,10.81
2018-12-03T08:14:38.211Z,10.83
2018-12-03T08:15:38.212Z,10.90
2018-12-03T08:16:39.210Z,10.94
2018-12-03T08:17:38.195Z,11.06
2018-12-03T08:18:38.167Z,11.16
2018-12-03T08:19:38.160Z,11.19
2018-12-03T08:20:38.143Z,11.19
2018-12-03T08:21:38.157Z,11.27
2018-12-03T08:22:38.120Z,11.35
2018-12-03T08:23:38.122Z,11.39
2018-12-03T08:24:38.129Z,11.44
2018-12-03T08:25:38.095Z,11.48
2018-12-03T08:26:38.109Z,11.46
2018-12-03T08:27:38.066Z,11.42
2018-12-03T08:28:38.054Z,11.46
2018-12-03T08:29:38.052Z,11.48
2018-12-03T08:30:38.041Z,11.53
2018-12-03T08:31:38.055Z,11.57
2018-12-03T08:32:38.012Z,11.59
2018-12-03T08:33:37.999Z,11.64
2018-12-03T08:34:37.988Z,11.62
2018-12-03T08:35:37.980Z,11.64
2018-12-03T08:36:37.989Z,11.72
2018-12-03T08:37:37.984Z,11.72
2018-12-03T08:38:39.256Z,11.69
2018-12-03T08:39:37.939Z,11.67
2018-12-03T08:40:37.927Z,11.74
2018-12-03T08:41:37.912Z,11.70
2018-12-03T08:42:37.953Z,11.67
2018-12-03T08:43:37.910Z,11.70
2018-12-03T08:44:37.880Z,11.69
2018-12-03T08:45:37.870Z,11.67
2018-12-03T08:46:37.865Z,11.66
2018-12-03T08:47:37.870Z,11.67
2018-12-03T08:48:37.836Z,11.75
2018-12-03T08:49:37.866Z,11.67
2018-12-03T08:50:37.814Z,11.79
2018-12-03T08:51:37.810Z,11.67
2018-12-03T08:52:37.826Z,11.72
2018-12-03T08:53:37.785Z,11.64
2018-12-03T08:54:37.783Z,11.64
2018-12-03T08:55:37.811Z,11.72
2018-12-03T08:56:37.749Z,11.69
2018-12-03T08:57:37.738Z,11.72
2018-12-03T08:58:37.798Z,11.67
2018-12-03T08:59:37.716Z,11.74
2018-12-03T09:00:37.709Z,11.72
2018-12-03T09:01:37.734Z,11.66
2018-12-03T09:02:37.695Z,11.72
2018-12-03T09:03:37.717Z,11.66
2018-12-03T09:04:37.662Z,11.69
2018-12-03T09:05:37.671Z,11.78
2018-12-03T09:06:37.644Z,11.82
2018-12-03T09:07:37.630Z,11.78
2018-12-03T09:08:37.644Z,11.82
2018-12-03T09:09:37.606Z,11.87
2018-12-03T09:10:37.656Z,11.77
2018-12-03T09:11:37.590Z,11.82
2018-12-03T09:12:38.229Z,11.78
2018-12-03T09:13:37.591Z,11.79
2018-12-03T09:14:37.552Z,11.79
2018-12-03T09:15:37.543Z,11.69
2018-12-03T09:16:37.575Z,11.74
2018-12-03T09:17:37.518Z,11.70
2018-12-03T09:18:37.559Z,11.67
2018-12-03T09:19:37.496Z,11.67
2018-12-03T09:20:37.492Z,11.67
2018-12-03T09:21:37.484Z,11.81
2018-12-03T09:22:37.525Z,11.67
2018-12-03T09:23:37.459Z,11.74
2018-12-03T09:24:37.470Z,11.69
2018-12-03T09:25:37.432Z,11.77
2018-12-03T09:26:37.420Z,11.77
2018-12-03T09:27:37.416Z,11.79
2018-12-03T09:28:37.475Z,11.82
2018-12-03T09:29:37.419Z,11.81
2018-12-03T09:30:37.378Z,11.81
2018-12-03T09:31:37.366Z,11.77
2018-12-03T09:32:37.357Z,11.88
2018-12-03T09:33:37.351Z,11.94
2018-12-03T09:34:37.369Z,11.98
2018-12-03T09:35:37.363Z,12.01
2018-12-03T09:36:37.314Z,12.00
2018-12-03T09:37:37.310Z,11.97
2018-12-03T09:38:37.290Z,11.98
2018-12-03T09:39:37.279Z,12.04
2018-12-03T09:40:37.302Z,12.05
2018-12-03T09:41:37.313Z,11.98
2018-12-03T09:42:37.257Z,12.03
2018-12-03T09:43:37.244Z,12.15
2018-12-03T09:44:37.226Z,12.15
2018-12-03T09:45:37.242Z,12.11
2018-12-03T09:46:37.203Z,12.12
2018-12-03T09:47:37.265Z,12.19
2018-12-03T09:48:37.182Z,12.19
2018-12-03T09:49:37.171Z,12.22
2018-12-03T09:50:37.185Z,12.18
2018-12-03T09:51:37.150Z,12.15
2018-12-03T09:52:37.669Z,12.23
2018-12-03T09:53:37.179Z,12.36
2018-12-03T09:54:37.117Z,12.23
2018-12-03T09:55:37.134Z,12.31
2018-12-03T09:56:37.131Z,12.26
2018-12-03T09:57:37.085Z,12.31
2018-12-03T09:58:37.074Z,12.34
2018-12-03T09:59:37.092Z,12.36
2018-12-03T10:00:37.055Z,12.26
2018-12-03T10:01:37.065Z,12.34
2018-12-03T10:02:37.030Z,12.29
2018-12-03T10:03:37.023Z,12.25
2018-12-03T10:04:37.013Z,12.26
2018-12-03T10:05:37.051Z,12.25
2018-12-03T10:06:37.012Z,12.22
2018-12-03T10:07:36.978Z,12.29
2018-12-03T10:08:36.970Z,12.23
2018-12-03T10:09:36.960Z,12.40
2018-12-03T10:10:36.946Z,12.38
2018-12-03T10:11:36.987Z,12.41
2018-12-03T10:12:36.923Z,12.38
2018-12-03T10:13:36.915Z,12.41
2018-12-03T10:14:36.904Z,12.46
2018-12-03T10:15:36.898Z,12.51
2018-12-03T10:16:36.905Z,12.52
2018-12-03T10:17:36.889Z,12.55
2018-12-03T10:18:36.859Z,12.51
2018-12-03T10:19:36.848Z,12.56
2018-12-03T10:20:42.080Z,12.59
2018-12-03T10:21:37.861Z,12.61
2018-12-03T10:22:36.814Z,12.61
2018-12-03T10:23:36.829Z,12.62
2018-12-03T10:24:36.792Z,12.70
2018-12-03T10:25:36.781Z,12.62
2018-12-03T10:26:36.800Z,12.59
2018-12-03T10:27:36.760Z,12.63
2018-12-03T10:28:36.757Z,12.63
2018-12-03T10:29:36.760Z,12.59
2018-12-03T10:30:36.727Z,12.58
2018-12-03T10:31:36.746Z,12.66
2018-12-03T10:32:36.711Z,12.71
2018-12-03T10:33:36.693Z,12.71
2018-12-03T10:34:36.689Z,12.70
2018-12-03T10:35:36.690Z,12.76
2018-12-03T10:36:36.662Z,12.80
2018-12-03T10:37:36.674Z,12.87
2018-12-03T10:38:36.642Z,12.89
2018-12-03T10:39:36.653Z,12.95
2018-12-03T10:40:36.617Z,12.98
2018-12-03T10:41:36.604Z,13.03
2018-12-03T10:42:36.649Z,13.03
2018-12-03T10:43:36.586Z,12.91
2018-12-03T10:44:36.572Z,12.91
2018-12-03T10:45:36.562Z,13.06
2018-12-03T10:46:36.550Z,13.06
2018-12-03T10:47:36.571Z,13.22
2018-12-03T10:48:36.554Z,13.27
2018-12-03T10:49:36.526Z,13.32
2018-12-03T10:50:36.515Z,13.32
2018-12-03T10:51:36.496Z,13.36
2018-12-03T10:52:36.483Z,13.53
2018-12-03T10:53:36.509Z,13.41
2018-12-03T10:54:36.502Z,13.61
2018-12-03T10:55:36.456Z,13.63
2018-12-03T10:56:36.442Z,13.63
2018-12-03T10:57:36.443Z,13.71
2018-12-03T10:58:36.440Z,13.80
2018-12-03T10:59:36.409Z,13.84
2018-12-03T11:00:36.427Z,13.79
2018-12-03T11:01:36.392Z,13.83
2018-12-03T11:02:36.375Z,13.91
2018-12-03T11:03:36.392Z,13.96
2018-12-03T11:04:36.356Z,13.87
2018-12-03T11:05:36.344Z,13.91
2018-12-03T11:06:36.352Z,13.96
2018-12-03T11:07:36.323Z,14.11
2018-12-03T11:08:36.341Z,14.02
2018-12-03T11:09:36.301Z,13.94
2018-12-03T11:10:36.298Z,14.01
2018-12-03T11:11:36.288Z,13.96
2018-12-03T11:12:36.271Z,13.93
2018-12-03T11:13:36.347Z,13.88
2018-12-03T11:14:36.247Z,13.83
2018-12-03T11:15:36.243Z,13.86
2018-12-03T11:16:36.238Z,14.01
2018-12-03T11:17:36.215Z,13.98
2018-12-03T11:18:36.243Z,14.04
2018-12-03T11:19:36.207Z,13.93
2018-12-03T11:20:36.180Z,13.84
2018-12-03T11:21:36.176Z,13.81
2018-12-03T11:22:36.158Z,13.73
2018-12-03T11:23:36.195Z,13.59
2018-12-03T11:24:36.168Z,13.68
2018-12-03T11:25:36.141Z,13.65
2018-12-03T11:26:36.120Z,13.72
2018-12-03T11:27:36.109Z,13.63
2018-12-03T11:28:36.103Z,13.81
2018-12-03T11:29:36.217Z,13.88
2018-12-03T11:30:36.084Z,13.93
2018-12-03T11:31:36.092Z,13.93
2018-12-03T11:32:36.056Z,13.88
2018-12-03T11:33:36.078Z,13.81
2018-12-03T11:34:36.067Z,13.73
2018-12-03T11:35:36.021Z,13.73
2018-12-03T11:36:36.033Z,13.69
2018-12-03T11:37:35.998Z,13.72
2018-12-03T11:38:35.997Z,13.75
2018-12-03T11:39:36.047Z,13.88
2018-12-03T11:40:36.020Z,13.80
2018-12-03T11:41:36.046Z,13.84
2018-12-03T11:42:35.951Z,13.79
2018-12-03T11:43:35.933Z,13.83
2018-12-03T11:44:35.943Z,13.91
2018-12-03T11:45:35.937Z,13.93
2018-12-03T11:46:35.981Z,13.94
2018-12-03T11:47:35.896Z,13.98
2018-12-03T11:48:35.881Z,13.93
2018-12-03T11:49:35.947Z,13.99
2018-12-03T11:50:35.904Z,13.98
2018-12-03T11:51:35.872Z,13.93
2018-12-03T11:52:35.845Z,13.81
2018-12-03T11:53:35.836Z,13.81
2018-12-03T11:54:35.818Z,13.68
2018-12-03T11:55:35.840Z,13.75
2018-12-03T11:56:35.857Z,13.76
2018-12-03T11:57:35.789Z,13.61
2018-12-03T11:58:35.778Z,13.65
2018-12-03T11:59:35.770Z,13.66
2018-12-03T12:00:35.786Z,13.68
2018-12-03T12:01:35.740Z,13.65
2018-12-03T12:02:35.762Z,13.71
2018-12-03T12:03:35.718Z,13.63
2018-12-03T12:04:35.717Z,13.68
2018-12-03T12:05:35.767Z,13.66
2018-12-03T12:06:35.687Z,13.66
2018-12-03T12:07:35.679Z,13.62
2018-12-03T12:08:35.732Z,13.66
2018-12-03T12:09:35.656Z,13.57
2018-12-03T12:10:35.672Z,13.47
2018-12-03T12:11:35.637Z,13.46
2018-12-03T12:12:35.623Z,13.41
2018-12-03T12:13:35.614Z,13.36
2018-12-03T12:14:35.603Z,13.38
2018-12-03T12:15:35.628Z,13.47
2018-12-03T12:16:35.600Z,13.41
2018-12-03T12:17:35.565Z,13.44
2018-12-03T12:18:35.555Z,13.47
2018-12-03T12:19:35.544Z,13.50
2018-12-03T12:20:35.541Z,13.43
2018-12-03T12:21:35.631Z,13.50
2018-12-03T12:22:35.523Z,13.41
2018-12-03T12:23:35.500Z,13.46
2018-12-03T12:24:36.439Z,13.35
2018-12-03T12:25:35.481Z,13.32
2018-12-03T12:26:35.468Z,13.28
2018-12-03T12:27:35.483Z,13.17
2018-12-03T12:28:38.161Z,13.03
2018-12-03T12:29:35.435Z,13.03
2018-12-03T12:30:35.433Z,13.04
2018-12-03T12:31:35.420Z,13.01
2018-12-03T12:32:35.444Z,13.01
2018-12-03T12:33:35.393Z,12.98
2018-12-03T12:38:44.340Z,13.10
2018-12-03T12:39:44.307Z,13.10
2018-12-03T12:40:44.296Z,13.13
2018-12-03T12:41:44.287Z,13.16
2018-12-03T12:42:44.299Z,13.24
2018-12-03T12:43:44.266Z,13.28
2018-12-03T12:44:44.251Z,13.31
2018-12-03T12:45:44.242Z,13.38
2018-12-03T12:46:44.230Z,13.32
